Time;durP1;ratioP1;P1;durP2;ratioP2;P2;SDS_P1;SDS_P2;PMS_P1;PMS_P2;Temp;Humidity;BMP_temperature;BMP_pressure;BME280_temperature;BME280_humidity;BME280_pressure;Samples;Min_cycle;Max_cycle;Signal;HPM_P1;HPM_P2
2023/07/09 00:00:22;;;;;;;8.63;4.85;;;25.50;51.80;;;26.14;40.59;100712.56;4949335;28;20571;-83
2023/07/09 00:02:50;;;;;;;8.32;4.70;;;25.40;52.20;;;26.12;40.72;100711.28;4934906;29;20083;-83
2023/07/09 00:05:18;;;;;;;10.40;4.70;;;25.40;52.40;;;26.09;41.12;100709.97;4935406;29;20669;-83
2023/07/09 00:07:46;;;;;;;8.43;4.80;;;25.30;52.90;;;26.06;40.79;100713.34;4934666;29;20130;-83
2023/07/09 00:10:19;;;;;;;9.57;4.93;;;25.30;53.00;;;26.04;40.97;100712.81;4929455;29;20062;-83
2023/07/09 00:12:46;;;;;;;7.47;4.70;;;25.30;53.20;;;26.03;41.26;100708.47;4933956;29;20134;-83
2023/07/09 00:15:18;;;;;;;8.32;4.78;;;25.30;53.30;;;26.01;41.34;100704.41;4937749;29;20075;-83
2023/07/09 00:17:45;;;;;;;7.15;4.07;;;25.20;53.40;;;26.00;41.59;100711.00;4931438;29;20055;-83
2023/07/09 00:20:16;;;;;;;8.30;4.50;;;25.20;53.80;;;25.97;41.84;100706.19;4940519;29;20039;-84
2023/07/09 00:22:51;;;;;;;8.70;4.85;;;25.10;54.30;;;25.96;41.92;100699.88;4936285;28;20047;-83
2023/07/09 00:25:20;;;;;;;9.20;4.68;;;25.10;54.20;;;25.91;41.70;100709.03;4942981;29;20059;-84
2023/07/09 00:27:49;;;;;;;7.68;4.40;;;25.10;54.30;;;25.90;41.87;100707.41;4941089;29;20058;-84
2023/07/09 00:30:23;;;;;;;8.10;4.40;;;25.10;54.20;;;25.92;41.86;100709.84;4940744;29;20055;-83
2023/07/09 00:32:51;;;;;;;11.45;4.88;;;25.10;54.20;;;25.91;41.67;100702.72;4960827;28;20504;-83
2023/07/09 00:35:19;;;;;;;7.55;4.38;;;25.10;54.30;;;25.92;41.48;100707.91;4976975;28;20058;-83
2023/07/09 00:37:47;;;;;;;9.75;4.80;;;25.10;54.20;;;25.92;41.66;100707.91;4969210;28;20491;-84
2023/07/09 00:40:22;;;;;;;9.65;4.55;;;25.10;54.10;;;25.92;41.96;100696.97;4972156;28;20050;-84
2023/07/09 00:42:52;;;;;;;9.25;4.70;;;25.20;54.40;;;25.91;42.13;100697.25;4928676;29;20058;-83
2023/07/09 00:45:24;;;;;;;10.60;4.93;;;25.10;54.40;;;25.91;41.80;100698.09;4925609;29;20054;-83
2023/07/09 00:48:00;;;;;;;9.98;4.63;;;25.10;54.60;;;25.91;42.13;100702.72;4957916;28;20048;-83
2023/07/09 00:50:41;;;;;;;9.75;4.90;;;25.10;54.80;;;25.89;42.47;100703.03;4927953;29;20070;-83
2023/07/09 00:53:18;;;;;;;8.98;5.28;;;25.10;55.30;;;25.84;42.81;100697.69;4928536;29;20047;-83
2023/07/09 00:55:53;;;;;;;7.43;4.13;;;25.00;55.60;;;25.83;43.22;100698.00;4938694;29;20051;-83
2023/07/09 00:58:22;;;;;;;9.07;4.75;;;24.90;56.10;;;25.80;43.45;100701.34;4934852;29;20048;-83
2023/07/09 01:00:54;;;;;;;8.20;4.50;;;24.80;57.00;;;25.76;43.48;100703.88;4965028;28;20139;-83
2023/07/09 01:03:29;;;;;;;7.45;4.75;;;24.80;57.20;;;25.73;43.74;100700.94;4933943;29;20070;-84
2023/07/09 01:05:58;;;;;;;10.00;4.55;;;24.70;57.30;;;25.70;43.88;100705.09;4966278;28;20046;-83
2023/07/09 01:08:32;;;;;;;7.65;4.57;;;24.70;57.90;;;25.67;44.05;100703.78;4938425;28;20056;-83
2023/07/09 01:11:00;;;;;;;10.10;5.03;;;24.70;58.00;;;25.64;44.30;100707.13;4942368;28;20139;-83
2023/07/09 01:13:28;;;;;;;8.32;4.95;;;24.60;57.90;;;25.63;44.43;100710.19;4966442;28;20071;-84
2023/07/09 01:15:57;;;;;;;8.57;4.63;;;24.60;58.60;;;25.58;44.40;100702.91;4968042;28;20112;-84
2023/07/09 01:18:24;;;;;;;9.38;4.88;;;24.50;58.50;;;25.56;44.54;100709.75;4936715;29;20043;-84
2023/07/09 01:20:53;;;;;;;9.82;5.00;;;24.50;58.80;;;25.53;44.84;100705.75;4935129;29;20138;-84
2023/07/09 01:23:22;;;;;;;8.70;4.60;;;24.50;58.80;;;25.50;44.72;100703.59;4936491;29;20047;-83
2023/07/09 01:25:54;;;;;;;9.82;5.20;;;24.50;58.90;;;25.46;44.92;100705.31;4935898;29;20043;-84
2023/07/09 01:28:22;;;;;;;11.85;5.47;;;24.40;59.30;;;25.44;45.43;100710.28;4969120;28;20059;-84
2023/07/09 01:30:53;;;;;;;9.45;4.80;;;24.40;59.70;;;25.41;45.45;100703.50;4937940;29;20441;-83
2023/07/09 01:33:23;;;;;;;10.13;4.78;;;24.40;60.20;;;25.37;45.71;100698.97;4937048;29;20147;-84
2023/07/09 01:35:52;;;;;;;7.43;4.45;;;24.30;60.40;;;25.34;45.62;100707.78;4967212;28;20540;-84
2023/07/09 01:38:23;;;;;;;8.10;4.50;;;24.30;60.20;;;25.30;45.96;100715.75;4936415;29;20075;-84
2023/07/09 01:40:51;;;;;;;9.52;5.28;;;24.20;60.60;;;25.26;45.80;100703.81;4937250;29;20083;-84
2023/07/09 01:43:19;;;;;;;11.98;5.25;;;24.20;61.00;;;25.22;45.84;100705.53;4936505;29;20051;-84
2023/07/09 01:45:49;;;;;;;7.85;4.82;;;24.10;61.00;;;25.19;46.30;100697.16;4937294;29;20055;-83
2023/07/09 01:48:17;;;;;;;10.43;5.18;;;24.10;61.60;;;25.14;46.30;100704.34;4940967;29;20046;-84
2023/07/09 01:50:45;;;;;;;9.85;4.90;;;24.00;61.60;;;25.12;46.39;100700.28;4937477;29;20039;-83
2023/07/09 01:53:14;;;;;;;8.45;5.30;;;24.00;61.80;;;25.08;46.74;100705.53;4967383;28;20512;-83
2023/07/09 01:55:43;;;;;;;11.93;5.15;;;23.90;62.00;;;25.04;46.83;100699.06;4934474;29;20047;-83
2023/07/09 01:58:11;;;;;;;10.00;4.85;;;23.90;62.30;;;25.02;46.82;100698.53;4961726;28;20044;-83
2023/07/09 02:00:41;;;;;;;10.68;5.10;;;23.90;62.60;;;24.98;46.77;100705.69;4935619;29;20445;-83
2023/07/09 02:03:08;;;;;;;10.43;5.13;;;23.80;62.40;;;24.95;47.21;100703.59;4937112;29;20514;-83
2023/07/09 02:05:38;;;;;;;11.27;5.22;;;23.80;62.90;;;24.92;47.13;100706.91;4937865;29;20110;-83
2023/07/09 02:08:05;;;;;;;9.38;5.10;;;23.80;63.20;;;24.88;47.52;100703.16;4937570;29;20122;-83
2023/07/09 02:10:33;;;;;;;7.85;4.95;;;23.70;63.60;;;24.85;47.50;100706.50;4937472;29;21132;-83
2023/07/09 02:13:02;;;;;;;7.53;5.03;;;23.70;63.90;;;24.82;47.78;100718.81;4935809;29;20479;-83
2023/07/09 02:15:30;;;;;;;13.30;5.63;;;23.60;64.00;;;24.80;48.01;100714.78;4935049;29;20059;-84
2023/07/09 02:17:58;;;;;;;12.88;4.90;;;23.60;64.20;;;24.77;47.77;100720.84;4964573;28;20130;-84
2023/07/09 02:20:27;;;;;;;9.95;4.85;;;23.60;64.10;;;24.74;48.32;100721.41;4937580;29;20079;-83
2023/07/09 02:22:54;;;;;;;8.88;5.03;;;23.60;64.90;;;24.71;48.23;100713.84;4935122;29;20047;-84
2023/07/09 02:25:21;;;;;;;11.00;5.13;;;23.50;65.00;;;24.67;48.47;100716.38;4938140;28;20048;-89
2023/07/09 02:27:50;;;;;;;9.60;5.35;;;23.50;65.40;;;24.65;48.68;100721.31;4967214;28;20052;-84
2023/07/09 02:30:20;;;;;;;9.52;4.93;;;23.50;65.60;;;24.62;48.67;100716.47;4967743;28;20583;-84
2023/07/09 02:32:47;;;;;;;8.27;5.03;;;23.40;65.40;;;24.59;48.66;100717.03;4938644;29;20116;-84
2023/07/09 02:35:14;;;;;;;9.75;5.07;;;23.40;65.60;;;24.56;48.78;100721.19;4934261;29;20036;-84
2023/07/09 02:37:42;;;;;;;11.95;5.57;;;23.30;65.80;;;24.53;48.97;100719.06;4935689;29;20052;-83
2023/07/09 02:40:10;;;;;;;9.57;5.03;;;23.30;65.90;;;24.50;49.00;100719.66;4964867;28;20461;-82
2023/07/09 02:42:39;;;;;;;8.05;5.10;;;23.30;65.90;;;24.48;49.01;100721.88;4933587;29;20047;-83
2023/07/09 02:45:07;;;;;;;9.82;5.15;;;23.20;66.00;;;24.46;49.11;100715.91;4943566;28;20075;-81
2023/07/09 02:47:36;;;;;;;10.82;5.43;;;23.20;66.20;;;24.43;49.17;100718.41;4966349;28;20044;-81
2023/07/09 02:50:47;;;;;;;8.98;5.07;;;23.20;66.30;;;24.39;49.41;100734.56;4933610;29;20114;-82
2023/07/09 02:53:14;;;;;;;15.60;5.43;;;23.20;66.70;;;24.36;49.26;100735.16;4945144;28;20114;-82
2023/07/09 02:55:42;;;;;;;11.65;5.20;;;23.10;66.60;;;24.33;49.28;100744.69;4964533;28;20052;-82
2023/07/09 02:58:09;;;;;;;11.60;5.45;;;23.10;66.80;;;24.31;49.39;100741.47;4964489;28;20452;-82
2023/07/09 03:00:36;;;;;;;10.60;5.20;;;23.10;66.80;;;24.28;49.50;100741.25;4932032;29;20135;-82
2023/07/09 03:03:05;;;;;;;9.75;5.25;;;23.10;67.00;;;24.26;49.43;100747.00;4966839;28;20047;-82
2023/07/09 03:05:32;;;;;;;10.75;5.50;;;23.00;66.70;;;24.25;49.40;100747.28;4966026;28;20083;-82
2023/07/09 03:07:59;;;;;;;9.73;5.28;;;23.00;66.70;;;24.24;49.48;100748.41;4932689;29;20059;-82
2023/07/09 03:10:29;;;;;;;13.15;5.20;;;23.00;66.90;;;24.21;49.56;100746.28;4934011;29;20851;-82
2023/07/09 03:12:56;;;;;;;9.80;5.30;;;23.00;67.40;;;24.19;50.01;100743.03;4930119;29;20059;-82
2023/07/09 03:15:24;;;;;;;11.75;5.32;;;22.90;67.70;;;24.14;49.91;100752.88;4935545;29;20048;-82
2023/07/09 03:17:51;;;;;;;8.48;5.50;;;22.90;67.80;;;24.13;50.13;100745.00;4934959;29;20059;-82
2023/07/09 03:20:20;;;;;;;8.77;4.97;;;22.80;68.00;;;24.11;50.39;100758.94;4933397;29;20044;-82
2023/07/09 03:22:47;;;;;;;11.77;5.50;;;22.80;68.60;;;24.08;50.42;100754.06;4928208;29;20083;-81
2023/07/09 03:25:14;;;;;;;9.95;4.88;;;22.80;68.40;;;24.07;50.14;100765.28;4933951;29;20140;-81
2023/07/09 03:27:41;;;;;;;9.55;5.70;;;22.80;68.50;;;24.03;50.34;100762.31;4931640;29;20098;-82
2023/07/09 03:30:10;;;;;;;10.52;5.72;;;22.80;68.70;;;24.02;50.47;100760.72;4964570;28;20512;-82
2023/07/09 03:32:37;;;;;;;9.27;5.10;;;22.70;68.80;;;23.97;50.74;100758.06;4934071;29;20089;-82
2023/07/09 03:35:05;;;;;;;9.57;6.07;;;22.70;68.90;;;23.96;50.73;100763.78;4933668;29;20074;-81
2023/07/09 03:37:34;;;;;;;7.63;5.25;;;22.70;69.10;;;23.95;50.92;100764.88;4933644;29;20043;-82
2023/07/09 03:40:03;;;;;;;10.63;5.60;;;22.70;69.10;;;23.94;50.77;100769.53;4934647;29;20036;-82
2023/07/09 03:42:31;;;;;;;8.25;5.32;;;22.70;69.30;;;23.92;51.08;100768.22;4935053;29;20075;-82
2023/07/09 03:44:58;;;;;;;11.32;5.55;;;22.70;69.30;;;23.90;50.88;100763.84;4934554;29;20048;-82
2023/07/09 03:47:25;;;;;;;8.77;5.85;;;22.70;69.40;;;23.90;51.19;100763.03;4964927;28;20103;-82
2023/07/09 03:49:52;;;;;;;10.30;5.65;;;22.70;69.80;;;23.87;51.36;100764.47;4934483;29;20064;-82
2023/07/09 03:52:19;;;;;;;9.15;5.65;;;22.60;69.80;;;23.85;51.32;100765.84;4935327;29;20066;-82
2023/07/09 03:54:48;;;;;;;12.07;5.80;;;22.60;69.90;;;23.85;51.67;100765.84;4936354;29;20079;-82
2023/07/09 03:57:15;;;;;;;13.63;5.85;;;22.60;70.20;;;23.82;51.71;100767.25;4935532;29;20170;-82
2023/07/09 03:59:42;;;;;;;9.38;5.35;;;22.60;70.30;;;23.82;51.84;100769.16;4933393;29;20051;-82
2023/07/09 04:02:10;;;;;;;10.07;5.28;;;22.60;70.50;;;23.82;52.12;100767.25;4935045;29;20048;-82
2023/07/09 04:04:37;;;;;;;9.25;5.30;;;22.60;70.80;;;23.81;51.91;100764.78;4917619;29;20799;-82
2023/07/09 04:07:05;;;;;;;10.82;5.70;;;22.60;70.70;;;23.79;52.05;100770.53;4929015;29;20460;-82
2023/07/09 04:09:32;;;;;;;11.38;6.03;;;22.60;70.70;;;23.80;52.24;100771.34;4933691;29;20418;-82
2023/07/09 04:12:01;;;;;;;10.20;5.60;;;22.60;71.10;;;23.81;52.21;100772.97;4934769;29;20172;-82
2023/07/09 04:14:28;;;;;;;8.40;5.63;;;22.60;71.00;;;23.81;52.38;100771.06;4935275;29;20043;-82
2023/07/09 04:16:55;;;;;;;10.02;5.80;;;22.70;71.20;;;23.82;52.52;100772.69;4929550;29;20036;-82
2023/07/09 04:19:22;;;;;;;9.20;5.75;;;22.70;71.30;;;23.82;52.70;100769.97;4932708;29;20043;-82
2023/07/09 04:21:50;;;;;;;8.77;5.20;;;22.70;71.40;;;23.85;52.80;100774.00;4965541;28;20079;-82
2023/07/09 04:24:19;;;;;;;9.02;5.15;;;22.80;71.40;;;23.86;53.22;100768.28;4934321;29;20115;-82
2023/07/09 04:26:47;;;;;;;8.27;4.82;;;22.80;71.90;;;23.87;53.13;100769.91;4934638;29;20050;-82
2023/07/09 04:29:15;;;;;;;10.82;5.43;;;22.80;71.90;;;23.87;53.61;100775.34;4934783;29;20066;-82
2023/07/09 04:31:43;;;;;;;8.25;5.40;;;22.80;72.60;;;23.88;53.34;100773.44;4935088;29;20060;-82
2023/07/09 04:34:10;;;;;;;9.43;5.30;;;22.80;72.20;;;23.91;53.16;100772.81;4935301;29;20122;-82
2023/07/09 04:36:37;;;;;;;11.15;5.85;;;22.90;71.90;;;23.95;53.43;100773.06;4934605;29;20098;-82
2023/07/09 04:39:04;;;;;;;12.63;5.95;;;22.90;72.10;;;24.01;53.49;100769.16;4966037;28;20061;-82
2023/07/09 04:41:32;;;;;;;7.93;5.40;;;23.00;72.00;;;24.07;53.30;100768.81;4932008;29;20040;-82
2023/07/09 04:43:59;;;;;;;13.18;5.63;;;23.10;71.90;;;24.13;52.99;100766.81;4927249;29;20071;-82
2023/07/09 04:46:28;;;;;;;10.55;5.53;;;23.10;71.30;;;24.23;52.36;100774.03;4923443;29;20510;-82
2023/07/09 04:48:56;;;;;;;9.00;5.60;;;23.20;70.50;;;24.29;52.77;100767.41;4944998;28;20541;-82
2023/07/09 04:51:23;;;;;;;7.90;4.97;;;23.30;71.10;;;24.37;52.99;100772.22;4967238;28;20531;-82
2023/07/09 04:53:52;;;;;;;9.48;5.25;;;23.40;71.10;;;24.44;52.56;100766.38;4933625;29;20051;-82
2023/07/09 04:56:19;;;;;;;11.00;5.75;;;23.50;70.70;;;24.52;52.00;100769.25;4935405;29;20044;-82
2023/07/09 04:58:46;;;;;;;8.85;5.65;;;23.60;70.10;;;24.60;52.20;100768.59;4933906;28;20047;-82
2023/07/09 05:01:13;;;;;;;11.27;5.80;;;23.70;70.10;;;24.65;51.92;100779.41;4963136;28;20138;-82
2023/07/09 05:03:42;;;;;;;10.85;5.32;;;23.80;69.60;;;24.72;52.01;100768.09;4931101;29;20564;-82
2023/07/09 05:06:09;;;;;;;12.02;5.80;;;23.80;69.50;;;24.80;51.96;100772.88;4933146;29;20138;-82
2023/07/09 05:08:36;;;;;;;10.25;5.55;;;23.90;69.20;;;24.88;52.12;100774.91;4933481;29;20042;-82
2023/07/09 05:11:03;;;;;;;7.53;5.30;;;24.00;69.50;;;24.92;51.75;100766.94;4933424;29;20080;-81
2023/07/09 05:13:30;;;;;;;11.68;4.82;;;24.10;69.10;;;25.00;51.79;100771.72;4934335;29;20122;-82
2023/07/09 05:15:57;;;;;;;12.05;5.95;;;24.20;68.90;;;25.08;51.61;100778.41;4933241;29;20058;-82
2023/07/09 05:18:25;;;;;;;9.07;5.50;;;24.30;68.40;;;25.13;51.62;100770.13;4933829;29;20169;-82
2023/07/09 05:20:53;;;;;;;10.52;5.70;;;24.40;68.30;;;25.13;51.41;100773.69;4933425;29;20054;-82
2023/07/09 05:23:20;;;;;;;10.95;5.70;;;24.40;68.10;;;25.10;51.74;100777.03;4934738;29;20596;-82
2023/07/09 05:25:48;;;;;;;9.57;5.78;;;24.40;68.70;;;25.20;51.59;100777.94;4927189;29;20060;-82
2023/07/09 05:28:15;;;;;;;10.15;5.65;;;24.50;68.10;;;25.31;51.58;100779.38;4933524;29;20471;-82
2023/07/09 05:30:43;;;;;;;10.82;6.03;;;24.70;67.70;;;25.39;50.55;100778.69;4934385;29;20470;-82
2023/07/09 05:33:10;;;;;;;10.10;5.75;;;24.80;66.70;;;25.47;50.63;100769.75;4933284;29;20118;-82
2023/07/09 05:35:37;;;;;;;10.02;6.07;;;24.90;66.40;;;25.56;50.67;100765.22;4934242;29;20090;-82
2023/07/09 05:38:06;;;;;;;11.93;5.40;;;25.10;66.60;;;25.61;50.46;100776.03;4934179;29;20058;-82
2023/07/09 05:40:33;;;;;;;13.50;6.00;;;25.10;66.00;;;25.64;50.76;100775.44;4932770;29;20620;-82
2023/07/09 05:43:00;;;;;;;11.38;5.68;;;25.10;66.00;;;25.76;51.55;100780.41;4933052;29;20134;-83
2023/07/09 05:45:28;;;;;;;11.32;5.47;;;25.30;66.90;;;25.88;51.32;100777.16;4932346;29;20146;-82
2023/07/09 05:47:55;;;;;;;10.35;5.97;;;25.50;66.80;;;25.98;50.26;100782.41;4932983;29;20042;-83
2023/07/09 05:50:22;;;;;;;10.35;5.70;;;25.60;65.30;;;26.09;50.72;100782.97;4932977;29;20044;-83
2023/07/09 05:52:49;;;;;;;10.88;5.85;;;25.80;65.20;;;26.17;50.83;100777.59;4934303;29;20143;-82
2023/07/09 05:55:18;;;;;;;8.57;5.70;;;25.90;65.20;;;26.27;51.06;100775.75;4937074;29;20504;-82
2023/07/09 05:57:45;;;;;;;10.77;6.30;;;26.00;65.40;;;26.34;51.03;100773.38;4935684;29;20058;-83
2023/07/09 06:00:14;;;;;;;11.07;5.78;;;26.10;65.50;;;26.43;50.95;100782.50;4936940;29;20048;-82
2023/07/09 06:02:41;;;;;;;9.55;5.45;;;26.20;65.30;;;26.47;50.53;100780.75;4938179;29;20119;-82
2023/07/09 06:05:10;;;;;;;11.85;5.90;;;26.30;65.10;;;26.53;50.87;100784.19;4936979;29;20039;-82
2023/07/09 06:07:39;;;;;;;10.68;5.20;;;26.30;64.90;;;26.58;51.98;100779.38;4934875;29;20455;-82
2023/07/09 06:10:08;;;;;;;11.60;5.50;;;26.40;66.20;;;26.63;51.60;100786.66;4937177;29;20126;-82
2023/07/09 06:12:37;;;;;;;8.93;5.60;;;26.50;65.40;;;26.70;51.70;100787.84;4937216;29;20058;-82
2023/07/09 06:15:06;;;;;;;10.25;5.15;;;26.60;65.60;;;26.78;50.87;100790.94;4968612;28;20067;-82
2023/07/09 06:17:33;;;;;;;10.88;6.00;;;26.70;64.70;;;26.83;50.96;100796.28;4936160;29;20114;-82
2023/07/09 06:20:00;;;;;;;9.57;5.70;;;26.80;64.30;;;26.90;50.91;100793.94;4936379;29;20067;-82
2023/07/09 06:22:27;;;;;;;10.10;5.30;;;26.80;64.20;;;26.99;52.54;100788.50;4937092;29;20127;-83
2023/07/09 06:24:55;;;;;;;11.73;6.00;;;27.00;66.60;;;27.06;51.84;100788.88;4937565;29;20066;-83
2023/07/09 06:27:23;;;;;;;10.75;5.70;;;27.00;65.60;;;27.09;51.15;100785.53;4936831;29;20396;-83
2023/07/09 06:29:51;;;;;;;8.88;5.10;;;27.10;64.40;;;27.13;50.81;100781.88;4934897;29;20505;-83
2023/07/09 06:32:19;;;;;;;10.75;5.40;;;27.10;64.20;;;27.23;50.21;100788.16;4934539;29;20058;-83
2023/07/09 06:34:46;;;;;;;10.80;5.18;;;27.20;63.80;;;27.32;50.76;100781.59;4939016;28;20056;-83
2023/07/09 06:37:14;;;;;;;15.13;6.30;;;27.40;64.30;;;27.41;51.26;100778.91;4938636;29;20698;-82
2023/07/09 06:39:41;;;;;;;9.55;5.28;;;27.50;63.80;;;27.40;49.95;100783.56;4941841;29;20130;-83
2023/07/09 06:42:09;;;;;;;13.68;5.88;;;27.50;62.00;;;27.49;50.54;100791.03;4966497;28;20487;-82
2023/07/09 06:44:59;;;;;;;15.35;6.00;;;27.60;63.10;;;27.58;49.29;100784.44;4947109;28;20039;-83
2023/07/09 06:47:26;;;;;;;10.00;6.10;;;27.80;60.90;;;27.68;48.01;100783.34;4936971;29;20135;-83
2023/07/09 06:49:53;;;;;;;9.68;5.53;;;27.90;59.70;;;27.75;48.05;100782.91;4932715;29;20051;-83
2023/07/09 06:52:20;;;;;;;9.75;5.95;;;28.00;60.10;;;27.85;48.36;100799.84;4937058;29;20047;-83
2023/07/09 06:54:49;;;;;;;11.35;5.68;;;28.10;60.20;;;27.94;47.48;100786.97;4936484;29;20040;-83
2023/07/09 06:57:16;;;;;;;11.13;6.13;;;28.20;59.30;;;28.02;48.65;100793.59;4936597;29;20398;-83
2023/07/09 06:59:43;;;;;;;9.93;5.10;;;28.20;60.10;;;28.10;48.29;100790.03;4934823;29;20044;-83
2023/07/09 07:02:12;;;;;;;13.20;5.97;;;28.40;59.70;;;28.20;48.64;100797.97;4934557;29;20546;-83
2023/07/09 07:04:39;;;;;;;9.32;5.60;;;28.50;60.10;;;28.26;47.17;100793.16;4935402;29;20051;-82
2023/07/09 07:07:06;;;;;;;9.63;5.40;;;28.50;58.30;;;28.31;47.39;100800.41;4936354;29;20417;-82
2023/07/09 07:09:34;;;;;;;10.55;5.85;;;28.60;58.90;;;28.36;46.55;100792.03;4937149;29;20482;-82
2023/07/09 07:12:01;;;;;;;12.77;5.57;;;28.60;57.70;;;28.41;47.94;100800.13;4935552;29;20114;-83
2023/07/09 07:14:28;;;;;;;10.00;5.40;;;28.70;58.90;;;28.44;46.79;100794.78;4950627;29;20738;-82
2023/07/09 07:16:57;;;;;;;10.43;5.13;;;28.70;58.20;;;28.41;45.32;100798.19;4935880;29;20118;-83
2023/07/09 07:19:26;;;;;;;12.55;5.88;;;28.70;56.40;;;28.48;45.25;100797.69;4935397;29;20054;-83
2023/07/09 07:21:53;;;;;;;10.32;5.85;;;28.70;56.20;;;28.58;46.81;100793.78;4934500;29;20075;-83
2023/07/09 07:24:20;;;;;;;10.18;6.05;;;28.80;57.50;;;28.58;44.73;100789.13;4934599;29;20110;-83
2023/07/09 07:26:47;;;;;;;11.48;6.18;;;28.80;55.60;;;28.60;45.46;100786.88;4935214;29;20070;-82
2023/07/09 07:29:14;;;;;;;9.68;6.18;;;28.90;56.30;;;28.68;45.57;100785.22;4936154;29;20083;-82
2023/07/09 07:31:42;;;;;;;11.07;6.10;;;29.00;56.80;;;28.73;45.23;100785.84;4934464;29;20505;-83
2023/07/09 07:34:09;;;;;;;11.70;5.93;;;29.00;56.70;;;28.80;46.46;100784.56;4961955;28;20048;-83
2023/07/09 07:36:38;;;;;;;11.05;6.45;;;29.10;57.90;;;28.88;45.06;100783.72;4942746;29;20039;-83
2023/07/09 07:39:05;;;;;;;10.48;6.38;;;29.20;56.50;;;28.93;46.20;100784.34;4947093;28;20373;-82
2023/07/09 07:41:32;;;;;;;10.68;5.80;;;29.30;57.10;;;29.04;44.82;100787.63;4962064;28;20048;-82
2023/07/09 07:43:59;;;;;;;11.73;6.43;;;29.40;55.70;;;29.05;44.52;100789.22;4930877;29;20869;-83
2023/07/09 07:46:27;;;;;;;11.23;5.90;;;29.40;55.20;;;29.10;44.97;100783.53;4942010;29;20101;-83
2023/07/09 07:48:54;;;;;;;13.40;6.50;;;29.40;55.60;;;28.97;45.14;100784.53;4948551;28;20496;-83
2023/07/09 07:51:22;;;;;;;13.07;6.25;;;29.20;55.70;;;28.99;45.46;100785.03;4936948;29;20051;-84
2023/07/09 07:53:50;;;;;;;10.18;6.00;;;29.20;56.40;;;29.02;45.78;100787.13;4951653;23;20066;-83
2023/07/09 07:56:17;;;;;;;9.02;5.93;;;29.20;56.90;;;29.06;45.35;100784.53;4942548;29;20046;-81
2023/07/09 07:58:45;;;;;;;11.43;6.10;;;29.20;56.70;;;29.11;47.22;100784.34;4944182;28;20036;-81
2023/07/09 08:01:12;;;;;;;11.98;6.30;;;29.30;58.10;;;29.26;46.91;100783.81;4942629;29;20046;-81
2023/07/09 08:03:39;;;;;;;11.60;6.75;;;29.50;57.50;;;29.24;46.25;100786.88;4944163;29;20047;-81
2023/07/09 08:06:07;;;;;;;10.20;6.47;;;29.50;57.20;;;29.30;45.20;100775.72;4946140;29;20126;-81
2023/07/09 08:08:34;;;;;;;14.18;7.00;;;29.60;55.70;;;29.39;44.75;100777.28;4940658;29;20046;-81
2023/07/09 08:11:07;;;;;;;10.63;6.55;;;29.70;55.50;;;29.49;44.52;100773.38;4950484;28;20067;-81
2023/07/09 08:13:36;;;;;;;14.80;6.35;;;29.80;54.90;;;29.54;45.47;100775.94;4936582;29;20099;-81
2023/07/09 08:16:04;;;;;;;12.63;6.45;;;29.90;55.70;;;29.61;45.33;100767.16;4954254;28;20051;-81
2023/07/09 08:18:32;;;;;;;11.55;6.10;;;30.00;56.30;;;29.63;44.43;100768.47;4948621;28;20193;-81
2023/07/09 08:21:00;;;;;;;11.38;6.40;;;30.00;55.20;;;29.72;44.95;100771.97;4941143;29;20119;-81
2023/07/09 08:23:27;;;;;;;11.25;6.38;;;30.00;55.30;;;29.73;43.18;100775.53;4939258;29;20046;-81
2023/07/09 08:25:55;;;;;;;13.02;6.45;;;30.00;53.20;;;29.73;43.24;100779.06;4949575;29;20126;-81
2023/07/09 08:28:24;;;;;;;14.35;6.38;;;30.00;53.60;;;29.81;43.84;100763.63;4958532;28;20154;-81
2023/07/09 08:30:53;;;;;;;12.15;6.07;;;30.10;54.10;;;29.89;43.96;100770.25;4940771;29;20074;-81
2023/07/09 08:33:21;;;;;;;11.88;6.40;;;30.20;54.50;;;29.90;45.12;100761.63;4937001;29;20095;-81
2023/07/09 08:35:50;;;;;;;13.00;6.30;;;30.20;55.30;;;29.96;43.89;100765.00;4945361;29;20043;-81
2023/07/09 08:38:18;;;;;;;12.05;5.88;;;30.30;54.10;;;29.99;44.03;100762.38;4953295;28;20118;-81
2023/07/09 08:40:57;;;;;;;12.63;6.53;;;30.30;54.00;;;30.07;43.83;100757.16;4943268;29;20564;-81
2023/07/09 08:43:37;;;;;;;12.13;6.53;;;30.40;54.10;;;30.12;42.23;100752.25;4935123;29;20056;-83
2023/07/09 08:46:18;;;;;;;12.48;6.65;;;30.50;52.00;;;30.10;42.45;100746.28;4934483;29;20067;-82
2023/07/09 08:48:49;;;;;;;16.17;6.00;;;30.40;52.20;;;30.18;41.94;100750.94;4947854;28;20048;-82
2023/07/09 08:51:25;;;;;;;13.77;6.32;;;30.60;51.30;;;30.18;42.52;100744.63;4938310;29;20070;-83
2023/07/09 08:53:58;;;;;;;11.60;6.50;;;30.50;52.40;;;30.26;42.86;100744.56;4936308;29;20131;-83
2023/07/09 08:56:27;;;;;;;11.15;6.75;;;30.60;52.80;;;30.22;41.92;100751.09;4951852;28;20052;-83
2023/07/09 08:58:59;;;;;;;16.58;6.70;;;30.60;51.50;;;30.19;41.66;100747.03;4937039;29;20044;-83
2023/07/09 09:01:35;;;;;;;10.73;6.18;;;30.50;51.40;;;30.28;42.46;100741.47;4929736;29;20071;-83
2023/07/09 09:04:14;;;;;;;10.48;6.45;;;30.60;52.20;;;30.38;41.93;100741.06;4927789;29;20385;-82
2023/07/09 09:06:47;;;;;;;12.00;5.70;;;30.70;51.40;;;30.39;42.12;100739.09;4940672;28;20126;-82
2023/07/09 09:09:29;;;;;;;11.82;5.80;;;30.80;51.60;;;30.44;40.87;100747.94;4934741;28;20051;-82
2023/07/09 09:12:08;;;;;;;11.70;6.15;;;30.80;49.90;;;30.55;40.72;100737.34;4937198;29;20102;-83
2023/07/09 09:14:42;;;;;;;12.20;6.20;;;30.90;49.80;;;30.64;41.16;100746.28;4951528;28;20083;-83
2023/07/09 09:17:14;;;;;;;11.07;5.57;;;31.10;50.70;;;30.66;41.30;100732.19;4956108;28;20134;-83
2023/07/09 09:19:49;;;;;;;13.63;6.38;;;31.10;50.90;;;30.75;40.79;100736.50;4965465;28;20052;-83
2023/07/09 09:22:24;;;;;;;12.15;5.78;;;31.20;50.20;;;30.73;39.97;100732.47;4971060;28;20138;-84
2023/07/09 09:25:03;;;;;;;11.93;5.97;;;31.20;48.80;;;30.78;39.50;100727.53;4945890;28;20123;-83
2023/07/09 09:27:30;;;;;;;11.43;5.82;;;31.20;48.10;;;30.81;39.80;100739.84;4938145;29;20067;-84
2023/07/09 09:29:59;;;;;;;13.38;6.28;;;31.20;48.80;;;30.78;39.46;100735.78;4962560;28;20416;-83
2023/07/09 09:32:29;;;;;;;12.32;5.90;;;31.20;47.80;;;30.85;41.88;100737.22;4948591;29;20051;-83
2023/07/09 09:34:57;;;;;;;11.63;5.63;;;31.30;51.30;;;30.91;41.35;100733.06;4938888;29;20485;-83
2023/07/09 09:37:30;;;;;;;9.57;5.60;;;31.30;50.60;;;30.97;40.62;100731.69;4939156;29;20685;-82
2023/07/09 09:39:59;;;;;;;13.32;5.53;;;31.40;49.90;;;31.04;39.71;100734.72;4940255;29;20040;-82
2023/07/09 09:42:27;;;;;;;14.25;5.50;;;31.50;49.00;;;31.01;39.65;100729.88;4937431;29;20473;-82
2023/07/09 09:44:56;;;;;;;10.35;4.85;;;31.40;48.00;;;31.10;38.41;100727.03;4931639;29;20047;-82
2023/07/09 09:47:28;;;;;;;11.48;5.40;;;31.50;46.80;;;31.14;39.04;100722.44;4946063;29;20041;-83
2023/07/09 09:49:55;;;;;;;9.82;5.18;;;31.60;47.50;;;31.26;39.70;100725.16;4946014;29;20055;-83
2023/07/09 09:52:32;;;;;;;14.02;5.00;;;31.70;48.20;;;31.31;40.38;100726.94;4955868;28;20413;-83
2023/07/09 09:55:11;;;;;;;8.82;4.90;;;31.80;48.80;;;31.33;40.71;100727.38;4963719;28;20043;-83
2023/07/09 09:57:38;;;;;;;8.68;4.93;;;31.80;48.60;;;31.37;39.55;100726.34;4940294;29;20079;-83
2023/07/09 10:00:15;;;;;;;10.07;4.90;;;31.80;47.80;;;31.37;38.56;100731.84;4946939;28;20064;-83
2023/07/09 10:02:45;;;;;;;11.43;4.82;;;31.80;46.80;;;31.37;37.83;100722.78;4962258;28;20098;-83
2023/07/09 10:05:14;;;;;;;9.30;4.88;;;31.80;45.70;;;31.43;39.59;100730.50;4947353;29;20091;-83
2023/07/09 10:07:49;;;;;;;11.20;4.80;;;31.90;47.60;;;31.46;37.13;100723.47;4940959;29;20465;-83
2023/07/09 10:10:24;;;;;;;10.98;4.75;;;31.90;44.90;;;31.48;39.59;100721.19;4948975;28;20049;-81
2023/07/09 10:12:54;;;;;;;8.40;5.10;;;31.90;47.80;;;31.51;37.97;100717.72;4940797;29;20060;-81
2023/07/09 10:15:30;;;;;;;;;;;31.90;45.70;;;31.47;36.95;100714.03;4967356;28;20048;-82